sensor_id;sensor_type;location;lat;lon;timestamp;temperature;humidity
10231;DHT22;5159;49.432;8.680;2022-07-03T00:01:57;22.00;41.50
10231;DHT22;5159;49.432;8.680;2022-07-03T00:04:24;22.10;41.70
10231;DHT22;5159;49.432;8.680;2022-07-03T00:06:53;22.00;42.90
10231;DHT22;5159;49.432;8.680;2022-07-03T00:09:21;21.80;43.40
10231;DHT22;5159;49.432;8.680;2022-07-03T00:11:49;21.80;44.90
10231;DHT22;5159;49.432;8.680;2022-07-03T00:14:17;21.70;46.50
10231;DHT22;5159;49.432;8.680;2022-07-03T00:16:44;21.50;47.90
10231;DHT22;5159;49.432;8.680;2022-07-03T00:19:12;21.40;49.30
10231;DHT22;5159;49.432;8.680;2022-07-03T00:21:45;21.30;50.90
10231;DHT22;5159;49.432;8.680;2022-07-03T00:24:19;21.10;52.90
10231;DHT22;5159;49.432;8.680;2022-07-03T00:26:51;21.00;54.10
10231;DHT22;5159;49.432;8.680;2022-07-03T00:29:20;20.80;56.40
10231;DHT22;5159;49.432;8.680;2022-07-03T00:31:48;20.80;57.20
10231;DHT22;5159;49.432;8.680;2022-07-03T00:34:16;20.60;58.10
10231;DHT22;5159;49.432;8.680;2022-07-03T00:36:46;20.50;57.50
10231;DHT22;5159;49.432;8.680;2022-07-03T00:39:13;20.40;58.50
10231;DHT22;5159;49.432;8.680;2022-07-03T00:41:41;20.40;58.30
10231;DHT22;5159;49.432;8.680;2022-07-03T00:44:12;20.30;60.60
10231;DHT22;5159;49.432;8.680;2022-07-03T00:46:41;20.20;62.20
10231;DHT22;5159;49.432;8.680;2022-07-03T00:49:10;20.20;60.20
10231;DHT22;5159;49.432;8.680;2022-07-03T00:51:39;20.20;60.00
10231;DHT22;5159;49.432;8.680;2022-07-03T00:54:08;20.20;58.60
10231;DHT22;5159;49.432;8.680;2022-07-03T00:56:38;20.20;58.60
10231;DHT22;5159;49.432;8.680;2022-07-03T00:59:05;20.20;60.50
10231;DHT22;5159;49.432;8.680;2022-07-03T01:01:36;20.20;58.80
10231;DHT22;5159;49.432;8.680;2022-07-03T01:04:13;20.20;59.10
10231;DHT22;5159;49.432;8.680;2022-07-03T01:06:51;20.20;59.50
10231;DHT22;5159;49.432;8.680;2022-07-03T01:09:26;20.20;59.30
10231;DHT22;5159;49.432;8.680;2022-07-03T01:12:03;20.30;59.00
10231;DHT22;5159;49.432;8.680;2022-07-03T01:14:38;20.30;59.10
10231;DHT22;5159;49.432;8.680;2022-07-03T01:17:20;20.20;58.60
10231;DHT22;5159;49.432;8.680;2022-07-03T01:19:58;20.20;58.70
10231;DHT22;5159;49.432;8.680;2022-07-03T01:22:30;20.20;60.00
10231;DHT22;5159;49.432;8.680;2022-07-03T01:25:11;20.20;58.80
10231;DHT22;5159;49.432;8.680;2022-07-03T01:27:55;20.30;57.50
10231;DHT22;5159;49.432;8.680;2022-07-03T01:30:24;20.40;57.70
10231;DHT22;5159;49.432;8.680;2022-07-03T01:32:57;20.40;57.10
10231;DHT22;5159;49.432;8.680;2022-07-03T01:35:30;20.40;56.70
10231;DHT22;5159;49.432;8.680;2022-07-03T01:38:02;20.40;56.70
10231;DHT22;5159;49.432;8.680;2022-07-03T01:40:29;20.50;56.80
10231;DHT22;5159;49.432;8.680;2022-07-03T01:43:01;20.40;57.10
10231;DHT22;5159;49.432;8.680;2022-07-03T01:45:31;20.40;57.60
10231;DHT22;5159;49.432;8.680;2022-07-03T01:47:58;20.30;58.20
10231;DHT22;5159;49.432;8.680;2022-07-03T01:50:28;20.30;59.30
10231;DHT22;5159;49.432;8.680;2022-07-03T01:52:56;20.20;61.30
10231;DHT22;5159;49.432;8.680;2022-07-03T01:55:26;20.10;62.10
10231;DHT22;5159;49.432;8.680;2022-07-03T01:57:56;20.10;63.80
10231;DHT22;5159;49.432;8.680;2022-07-03T02:00:25;19.90;66.30
10231;DHT22;5159;49.432;8.680;2022-07-03T02:02:58;19.80;66.30
10231;DHT22;5159;49.432;8.680;2022-07-03T02:05:32;19.80;66.50
10231;DHT22;5159;49.432;8.680;2022-07-03T02:08:21;19.70;68.10
10231;DHT22;5159;49.432;8.680;2022-07-03T02:11:09;19.70;68.10
10231;DHT22;5159;49.432;8.680;2022-07-03T02:13:40;19.60;67.20
10231;DHT22;5159;49.432;8.680;2022-07-03T02:16:17;19.70;68.00
10231;DHT22;5159;49.432;8.680;2022-07-03T02:18:49;19.60;70.90
10231;DHT22;5159;49.432;8.680;2022-07-03T02:21:19;19.50;72.70
10231;DHT22;5159;49.432;8.680;2022-07-03T02:23:53;19.40;72.10
10231;DHT22;5159;49.432;8.680;2022-07-03T02:26:27;19.40;70.20
10231;DHT22;5159;49.432;8.680;2022-07-03T02:28:59;19.50;70.10
10231;DHT22;5159;49.432;8.680;2022-07-03T02:31:34;19.50;71.70
10231;DHT22;5159;49.432;8.680;2022-07-03T02:34:06;19.40;72.50
10231;DHT22;5159;49.432;8.680;2022-07-03T02:36:35;19.30;74.00
10231;DHT22;5159;49.432;8.680;2022-07-03T02:39:04;19.20;75.90
10231;DHT22;5159;49.432;8.680;2022-07-03T02:41:42;19.10;77.00
10231;DHT22;5159;49.432;8.680;2022-07-03T02:44:16;19.00;78.20
10231;DHT22;5159;49.432;8.680;2022-07-03T02:46:59;19.00;79.20
10231;DHT22;5159;49.432;8.680;2022-07-03T02:49:42;18.90;80.10
10231;DHT22;5159;49.432;8.680;2022-07-03T02:52:20;18.90;81.80
10231;DHT22;5159;49.432;8.680;2022-07-03T02:54:49;18.80;82.20
10231;DHT22;5159;49.432;8.680;2022-07-03T02:57:20;18.80;82.60
10231;DHT22;5159;49.432;8.680;2022-07-03T02:59:55;18.70;82.80
10231;DHT22;5159;49.432;8.680;2022-07-03T03:02:50;18.70;83.20
10231;DHT22;5159;49.432;8.680;2022-07-03T03:05:25;18.60;84.60
10231;DHT22;5159;49.432;8.680;2022-07-03T03:08:02;18.60;84.60
10231;DHT22;5159;49.432;8.680;2022-07-03T03:10:34;18.60;85.60
10231;DHT22;5159;49.432;8.680;2022-07-03T03:13:04;18.50;86.60
10231;DHT22;5159;49.432;8.680;2022-07-03T03:15:32;18.50;87.40
10231;DHT22;5159;49.432;8.680;2022-07-03T03:18:03;18.40;87.60
10231;DHT22;5159;49.432;8.680;2022-07-03T03:20:32;18.40;87.10
10231;DHT22;5159;49.432;8.680;2022-07-03T03:23:11;18.40;88.60
10231;DHT22;5159;49.432;8.680;2022-07-03T03:25:40;18.30;89.10
10231;DHT22;5159;49.432;8.680;2022-07-03T03:28:07;18.30;89.30
10231;DHT22;5159;49.432;8.680;2022-07-03T03:30:35;18.30;89.90
10231;DHT22;5159;49.432;8.680;2022-07-03T03:33:05;18.20;90.00
10231;DHT22;5159;49.432;8.680;2022-07-03T03:35:34;18.20;90.40
10231;DHT22;5159;49.432;8.680;2022-07-03T03:38:01;18.20;90.70
10231;DHT22;5159;49.432;8.680;2022-07-03T03:40:28;18.20;90.50
10231;DHT22;5159;49.432;8.680;2022-07-03T03:42:55;18.20;90.20
10231;DHT22;5159;49.432;8.680;2022-07-03T03:45:22;18.20;90.00
10231;DHT22;5159;49.432;8.680;2022-07-03T03:47:49;18.10;90.40
10231;DHT22;5159;49.432;8.680;2022-07-03T03:50:18;18.10;90.70
10231;DHT22;5159;49.432;8.680;2022-07-03T03:52:45;18.10;90.80
10231;DHT22;5159;49.432;8.680;2022-07-03T03:55:12;18.10;90.40
10231;DHT22;5159;49.432;8.680;2022-07-03T03:57:39;18.10;90.40
10231;DHT22;5159;49.432;8.680;2022-07-03T04:00:08;18.10;90.40
10231;DHT22;5159;49.432;8.680;2022-07-03T04:02:35;18.20;90.80
10231;DHT22;5159;49.432;8.680;2022-07-03T04:05:02;18.10;90.60
10231;DHT22;5159;49.432;8.680;2022-07-03T04:07:30;18.20;91.00
10231;DHT22;5159;49.432;8.680;2022-07-03T04:09:57;18.10;90.90
10231;DHT22;5159;49.432;8.680;2022-07-03T04:12:24;18.10;91.20
10231;DHT22;5159;49.432;8.680;2022-07-03T04:14:51;18.20;91.20
10231;DHT22;5159;49.432;8.680;2022-07-03T04:17:18;18.20;91.20
10231;DHT22;5159;49.432;8.680;2022-07-03T04:19:45;18.20;91.10
10231;DHT22;5159;49.432;8.680;2022-07-03T04:22:12;18.20;91.20
10231;DHT22;5159;49.432;8.680;2022-07-03T04:24:41;18.20;91.50
10231;DHT22;5159;49.432;8.680;2022-07-03T04:27:08;18.20;91.50
10231;DHT22;5159;49.432;8.680;2022-07-03T04:29:35;18.20;91.40
10231;DHT22;5159;49.432;8.680;2022-07-03T04:32:02;18.30;91.70
10231;DHT22;5159;49.432;8.680;2022-07-03T04:34:29;18.30;92.00
10231;DHT22;5159;49.432;8.680;2022-07-03T04:36:56;18.30;91.90
10231;DHT22;5159;49.432;8.680;2022-07-03T04:39:23;18.30;92.20
10231;DHT22;5159;49.432;8.680;2022-07-03T04:41:51;18.30;91.90
10231;DHT22;5159;49.432;8.680;2022-07-03T04:44:18;18.30;91.80
10231;DHT22;5159;49.432;8.680;2022-07-03T04:46:45;18.50;91.30
10231;DHT22;5159;49.432;8.680;2022-07-03T04:49:12;18.60;91.50
10231;DHT22;5159;49.432;8.680;2022-07-03T04:51:39;18.50;91.90
10231;DHT22;5159;49.432;8.680;2022-07-03T04:54:06;18.50;91.60
10231;DHT22;5159;49.432;8.680;2022-07-03T04:56:33;18.50;91.70
10231;DHT22;5159;49.432;8.680;2022-07-03T04:59:01;18.60;91.80
10231;DHT22;5159;49.432;8.680;2022-07-03T05:01:28;18.60;92.10
10231;DHT22;5159;49.432;8.680;2022-07-03T05:03:55;18.80;92.00
10231;DHT22;5159;49.432;8.680;2022-07-03T05:06:22;19.00;91.50
10231;DHT22;5159;49.432;8.680;2022-07-03T05:08:49;19.20;91.00
10231;DHT22;5159;49.432;8.680;2022-07-03T05:11:16;19.40;90.40
10231;DHT22;5159;49.432;8.680;2022-07-03T05:13:43;19.40;90.30
10231;DHT22;5159;49.432;8.680;2022-07-03T05:16:11;19.60;90.20
10231;DHT22;5159;49.432;8.680;2022-07-03T05:18:38;19.60;89.70
10231;DHT22;5159;49.432;8.680;2022-07-03T05:21:05;19.70;89.80
10231;DHT22;5159;49.432;8.680;2022-07-03T05:23:32;19.70;89.40
10231;DHT22;5159;49.432;8.680;2022-07-03T05:25:59;19.80;90.00
10231;DHT22;5159;49.432;8.680;2022-07-03T05:28:26;19.90;89.50
10231;DHT22;5159;49.432;8.680;2022-07-03T05:30:53;19.90;89.10
10231;DHT22;5159;49.432;8.680;2022-07-03T05:33:21;20.00;88.40
10231;DHT22;5159;49.432;8.680;2022-07-03T05:35:48;20.00;88.90
10231;DHT22;5159;49.432;8.680;2022-07-03T05:38:15;20.10;88.30
10231;DHT22;5159;49.432;8.680;2022-07-03T05:41:03;20.20;88.20
10231;DHT22;5159;49.432;8.680;2022-07-03T05:43:30;20.20;88.10
10231;DHT22;5159;49.432;8.680;2022-07-03T05:45:57;20.30;88.60
10231;DHT22;5159;49.432;8.680;2022-07-03T05:48:26;20.30;88.70
10231;DHT22;5159;49.432;8.680;2022-07-03T05:50:53;20.40;88.80
10231;DHT22;5159;49.432;8.680;2022-07-03T05:53:20;20.40;88.80
10231;DHT22;5159;49.432;8.680;2022-07-03T05:55:47;20.50;88.70
10231;DHT22;5159;49.432;8.680;2022-07-03T05:58:14;20.50;88.90
10231;DHT22;5159;49.432;8.680;2022-07-03T06:00:41;20.60;88.80
10231;DHT22;5159;49.432;8.680;2022-07-03T06:03:09;20.70;88.70
10231;DHT22;5159;49.432;8.680;2022-07-03T06:05:37;20.70;88.30
10231;DHT22;5159;49.432;8.680;2022-07-03T06:08:05;20.80;88.40
10231;DHT22;5159;49.432;8.680;2022-07-03T06:10:32;20.90;87.80
10231;DHT22;5159;49.432;8.680;2022-07-03T06:12:59;20.90;87.40
10231;DHT22;5159;49.432;8.680;2022-07-03T06:15:26;21.00;87.20
10231;DHT22;5159;49.432;8.680;2022-07-03T06:17:53;21.00;85.80
10231;DHT22;5159;49.432;8.680;2022-07-03T06:20:20;21.10;85.20
10231;DHT22;5159;49.432;8.680;2022-07-03T06:22:49;21.20;84.80
10231;DHT22;5159;49.432;8.680;2022-07-03T06:25:16;21.30;85.00
10231;DHT22;5159;49.432;8.680;2022-07-03T06:27:43;21.40;84.50
10231;DHT22;5159;49.432;8.680;2022-07-03T06:30:10;21.50;83.60
10231;DHT22;5159;49.432;8.680;2022-07-03T06:32:37;21.60;82.80
10231;DHT22;5159;49.432;8.680;2022-07-03T06:35:05;21.70;81.40
10231;DHT22;5159;49.432;8.680;2022-07-03T06:37:32;21.70;81.20
10231;DHT22;5159;49.432;8.680;2022-07-03T06:40:00;21.80;80.50
10231;DHT22;5159;49.432;8.680;2022-07-03T06:42:27;21.90;80.20
10231;DHT22;5159;49.432;8.680;2022-07-03T06:44:54;22.00;79.10
10231;DHT22;5159;49.432;8.680;2022-07-03T06:47:21;22.20;78.70
10231;DHT22;5159;49.432;8.680;2022-07-03T06:49:48;22.40;77.40
10231;DHT22;5159;49.432;8.680;2022-07-03T06:52:15;22.50;74.80
10231;DHT22;5159;49.432;8.680;2022-07-03T06:54:42;22.60;74.30
10231;DHT22;5159;49.432;8.680;2022-07-03T06:57:11;22.60;72.50
10231;DHT22;5159;49.432;8.680;2022-07-03T06:59:39;22.60;73.10
10231;DHT22;5159;49.432;8.680;2022-07-03T07:02:07;22.60;73.00
10231;DHT22;5159;49.432;8.680;2022-07-03T07:04:34;22.90;72.40
10231;DHT22;5159;49.432;8.680;2022-07-03T07:07:01;22.90;72.30
10231;DHT22;5159;49.432;8.680;2022-07-03T07:09:28;22.70;71.20
10231;DHT22;5159;49.432;8.680;2022-07-03T07:11:55;22.70;72.10
10231;DHT22;5159;49.432;8.680;2022-07-03T07:14:23;22.80;72.20
10231;DHT22;5159;49.432;8.680;2022-07-03T07:16:50;23.20;72.20
10231;DHT22;5159;49.432;8.680;2022-07-03T07:19:17;23.40;72.00
10231;DHT22;5159;49.432;8.680;2022-07-03T07:21:44;24.00;72.60
10231;DHT22;5159;49.432;8.680;2022-07-03T07:24:11;24.30;67.70
10231;DHT22;5159;49.432;8.680;2022-07-03T07:26:38;24.20;66.60
10231;DHT22;5159;49.432;8.680;2022-07-03T07:29:05;24.00;66.80
10231;DHT22;5159;49.432;8.680;2022-07-03T07:31:34;24.10;67.00
10231;DHT22;5159;49.432;8.680;2022-07-03T07:34:01;24.00;67.40
10231;DHT22;5159;49.432;8.680;2022-07-03T07:36:30;24.20;66.90
10231;DHT22;5159;49.432;8.680;2022-07-03T07:38:57;24.10;66.40
10231;DHT22;5159;49.432;8.680;2022-07-03T07:41:24;24.20;66.50
10231;DHT22;5159;49.432;8.680;2022-07-03T07:43:51;24.70;66.30
10231;DHT22;5159;49.432;8.680;2022-07-03T07:46:18;24.80;64.80
10231;DHT22;5159;49.432;8.680;2022-07-03T07:48:46;24.60;63.80
10231;DHT22;5159;49.432;8.680;2022-07-03T07:51:13;24.80;64.00
10231;DHT22;5159;49.432;8.680;2022-07-03T07:53:40;24.90;64.20
10231;DHT22;5159;49.432;8.680;2022-07-03T07:56:07;25.20;62.70
10231;DHT22;5159;49.432;8.680;2022-07-03T07:58:34;25.20;60.50
10231;DHT22;5159;49.432;8.680;2022-07-03T08:01:01;25.30;59.80
10231;DHT22;5159;49.432;8.680;2022-07-03T08:03:51;25.50;58.60
10231;DHT22;5159;49.432;8.680;2022-07-03T08:06:35;25.90;57.00
10231;DHT22;5159;49.432;8.680;2022-07-03T08:09:02;26.00;55.50
10231;DHT22;5159;49.432;8.680;2022-07-03T08:11:29;26.20;54.40
10231;DHT22;5159;49.432;8.680;2022-07-03T08:13:56;26.40;52.90
10231;DHT22;5159;49.432;8.680;2022-07-03T08:16:23;26.60;50.90
10231;DHT22;5159;49.432;8.680;2022-07-03T08:18:52;26.50;48.60
10231;DHT22;5159;49.432;8.680;2022-07-03T08:21:19;26.50;48.70
10231;DHT22;5159;49.432;8.680;2022-07-03T08:23:46;26.60;47.00
10231;DHT22;5159;49.432;8.680;2022-07-03T08:26:13;26.90;46.50
10231;DHT22;5159;49.432;8.680;2022-07-03T08:28:40;26.60;45.80
10231;DHT22;5159;49.432;8.680;2022-07-03T08:31:07;26.80;46.70
10231;DHT22;5159;49.432;8.680;2022-07-03T08:33:34;27.10;44.50
10231;DHT22;5159;49.432;8.680;2022-07-03T08:36:04;27.70;45.10
10231;DHT22;5159;49.432;8.680;2022-07-03T08:38:32;28.20;45.50
10231;DHT22;5159;49.432;8.680;2022-07-03T08:41:00;28.70;46.10
10231;DHT22;5159;49.432;8.680;2022-07-03T08:43:28;29.10;40.00
10231;DHT22;5159;49.432;8.680;2022-07-03T08:45:57;28.80;39.20
10231;DHT22;5159;49.432;8.680;2022-07-03T08:48:25;28.70;39.20
10231;DHT22;5159;49.432;8.680;2022-07-03T08:50:52;29.20;40.10
10231;DHT22;5159;49.432;8.680;2022-07-03T08:53:21;29.30;37.10
10231;DHT22;5159;49.432;8.680;2022-07-03T08:55:49;29.60;36.90
10231;DHT22;5159;49.432;8.680;2022-07-03T08:58:17;29.90;35.40
10231;DHT22;5159;49.432;8.680;2022-07-03T09:00:45;30.30;34.40
10231;DHT22;5159;49.432;8.680;2022-07-03T09:03:14;30.50;34.50
10231;DHT22;5159;49.432;8.680;2022-07-03T09:05:41;30.50;32.50
10231;DHT22;5159;49.432;8.680;2022-07-03T09:08:09;30.90;32.80
10231;DHT22;5159;49.432;8.680;2022-07-03T09:10:38;31.00;29.50
10231;DHT22;5159;49.432;8.680;2022-07-03T09:13:05;31.00;30.00
10231;DHT22;5159;49.432;8.680;2022-07-03T09:15:32;31.10;28.00
10231;DHT22;5159;49.432;8.680;2022-07-03T09:18:00;31.10;27.90
10231;DHT22;5159;49.432;8.680;2022-07-03T09:20:29;31.50;28.30
10231;DHT22;5159;49.432;8.680;2022-07-03T09:23:17;31.20;28.00
10231;DHT22;5159;49.432;8.680;2022-07-03T09:25:54;31.10;27.70
10231;DHT22;5159;49.432;8.680;2022-07-03T09:28:22;31.60;26.90
10231;DHT22;5159;49.432;8.680;2022-07-03T09:30:58;32.00;27.10
10231;DHT22;5159;49.432;8.680;2022-07-03T09:33:26;32.40;26.10
10231;DHT22;5159;49.432;8.680;2022-07-03T09:35:53;32.70;24.60
10231;DHT22;5159;49.432;8.680;2022-07-03T09:38:21;32.30;23.90
10231;DHT22;5159;49.432;8.680;2022-07-03T09:40:51;32.50;25.60
10231;DHT22;5159;49.432;8.680;2022-07-03T09:43:24;32.80;23.80
10231;DHT22;5159;49.432;8.680;2022-07-03T09:45:55;32.90;23.50
10231;DHT22;5159;49.432;8.680;2022-07-03T09:48:28;32.80;23.90
10231;DHT22;5159;49.432;8.680;2022-07-03T09:51:09;33.10;24.20
10231;DHT22;5159;49.432;8.680;2022-07-03T09:53:47;33.20;22.60
10231;DHT22;5159;49.432;8.680;2022-07-03T09:56:14;33.20;23.90
10231;DHT22;5159;49.432;8.680;2022-07-03T09:59:02;32.70;20.90
10231;DHT22;5159;49.432;8.680;2022-07-03T10:01:30;32.30;21.40
10231;DHT22;5159;49.432;8.680;2022-07-03T10:04:09;31.90;23.80
10231;DHT22;5159;49.432;8.680;2022-07-03T10:06:47;31.60;22.70
10231;DHT22;5159;49.432;8.680;2022-07-03T10:09:15;31.90;22.50
10231;DHT22;5159;49.432;8.680;2022-07-03T10:11:44;32.10;22.00
10231;DHT22;5159;49.432;8.680;2022-07-03T10:14:14;32.60;23.00
10231;DHT22;5159;49.432;8.680;2022-07-03T10:16:41;32.80;21.30
10231;DHT22;5159;49.432;8.680;2022-07-03T10:19:13;33.20;21.90
10231;DHT22;5159;49.432;8.680;2022-07-03T10:21:41;33.60;21.40
10231;DHT22;5159;49.432;8.680;2022-07-03T10:24:11;33.50;21.80
10231;DHT22;5159;49.432;8.680;2022-07-03T10:26:39;32.50;21.10
10231;DHT22;5159;49.432;8.680;2022-07-03T10:29:09;32.00;22.40
10231;DHT22;5159;49.432;8.680;2022-07-03T10:31:45;31.80;23.70
10231;DHT22;5159;49.432;8.680;2022-07-03T10:34:16;32.10;23.40
10231;DHT22;5159;49.432;8.680;2022-07-03T10:36:43;31.50;22.90
10231;DHT22;5159;49.432;8.680;2022-07-03T10:39:20;31.70;24.00
10231;DHT22;5159;49.432;8.680;2022-07-03T10:41:50;31.90;23.80
10231;DHT22;5159;49.432;8.680;2022-07-03T10:44:52;32.60;22.70
10231;DHT22;5159;49.432;8.680;2022-07-03T10:47:43;32.90;22.90
10231;DHT22;5159;49.432;8.680;2022-07-03T10:50:12;32.80;22.00
10231;DHT22;5159;49.432;8.680;2022-07-03T10:52:40;33.20;21.00
10231;DHT22;5159;49.432;8.680;2022-07-03T10:55:10;33.40;20.40
10231;DHT22;5159;49.432;8.680;2022-07-03T10:57:38;33.60;19.70
10231;DHT22;5159;49.432;8.680;2022-07-03T11:00:13;33.20;19.00
10231;DHT22;5159;49.432;8.680;2022-07-03T11:02:44;32.30;19.30
10231;DHT22;5159;49.432;8.680;2022-07-03T11:05:16;31.80;17.50
10231;DHT22;5159;49.432;8.680;2022-07-03T11:08:18;31.60;18.30
10231;DHT22;5159;49.432;8.680;2022-07-03T11:10:45;30.90;18.90
10231;DHT22;5159;49.432;8.680;2022-07-03T11:13:32;31.70;21.90
10231;DHT22;5159;49.432;8.680;2022-07-03T11:15:59;32.50;20.40
10231;DHT22;5159;49.432;8.680;2022-07-03T11:18:32;32.90;19.30
10231;DHT22;5159;49.432;8.680;2022-07-03T11:21:33;32.50;17.80
10231;DHT22;5159;49.432;8.680;2022-07-03T11:24:25;32.70;20.10
10231;DHT22;5159;49.432;8.680;2022-07-03T11:27:17;33.00;20.90
10231;DHT22;5159;49.432;8.680;2022-07-03T11:29:49;33.20;18.40
10231;DHT22;5159;49.432;8.680;2022-07-03T11:32:51;32.70;19.00
10231;DHT22;5159;49.432;8.680;2022-07-03T11:35:49;31.40;19.60
10231;DHT22;5159;49.432;8.680;2022-07-03T11:38:25;30.70;20.60
10231;DHT22;5159;49.432;8.680;2022-07-03T11:40:54;30.60;20.80
10231;DHT22;5159;49.432;8.680;2022-07-03T11:43:21;30.80;22.20
10231;DHT22;5159;49.432;8.680;2022-07-03T11:45:49;31.40;22.20
10231;DHT22;5159;49.432;8.680;2022-07-03T11:48:17;31.80;20.30
10231;DHT22;5159;49.432;8.680;2022-07-03T11:50:45;31.30;21.00
10231;DHT22;5159;49.432;8.680;2022-07-03T11:53:25;31.90;21.60
10231;DHT22;5159;49.432;8.680;2022-07-03T11:55:55;32.50;20.60
10231;DHT22;5159;49.432;8.680;2022-07-03T11:58:22;32.90;19.80
10231;DHT22;5159;49.432;8.680;2022-07-03T12:00:50;33.20;20.70
10231;DHT22;5159;49.432;8.680;2022-07-03T12:03:24;33.20;18.70
10231;DHT22;5159;49.432;8.680;2022-07-03T12:05:52;32.60;19.90
10231;DHT22;5159;49.432;8.680;2022-07-03T12:08:26;32.90;20.30
10231;DHT22;5159;49.432;8.680;2022-07-03T12:10:57;32.80;18.10
10231;DHT22;5159;49.432;8.680;2022-07-03T12:13:25;32.70;19.30
10231;DHT22;5159;49.432;8.680;2022-07-03T12:15:53;32.60;19.00
10231;DHT22;5159;49.432;8.680;2022-07-03T12:18:20;32.60;18.40
10231;DHT22;5159;49.432;8.680;2022-07-03T12:20:47;31.70;17.40
10231;DHT22;5159;49.432;8.680;2022-07-03T12:23:14;31.60;18.20
10231;DHT22;5159;49.432;8.680;2022-07-03T12:25:43;31.80;20.00
10231;DHT22;5159;49.432;8.680;2022-07-03T12:28:10;32.20;18.30
10231;DHT22;5159;49.432;8.680;2022-07-03T12:30:39;32.30;18.80
10231;DHT22;5159;49.432;8.680;2022-07-03T12:33:06;32.50;17.40
10231;DHT22;5159;49.432;8.680;2022-07-03T12:35:34;32.50;18.40
10231;DHT22;5159;49.432;8.680;2022-07-03T12:38:01;32.70;17.60
10231;DHT22;5159;49.432;8.680;2022-07-03T12:40:28;32.90;17.90
10231;DHT22;5159;49.432;8.680;2022-07-03T12:42:56;32.70;16.90
10231;DHT22;5159;49.432;8.680;2022-07-03T12:45:26;32.70;17.30
10231;DHT22;5159;49.432;8.680;2022-07-03T12:48:03;32.50;15.80
10231;DHT22;5159;49.432;8.680;2022-07-03T12:50:47;32.80;18.00
10231;DHT22;5159;49.432;8.680;2022-07-03T12:53:29;31.60;16.90
10231;DHT22;5159;49.432;8.680;2022-07-03T12:56:00;31.90;18.50
10231;DHT22;5159;49.432;8.680;2022-07-03T12:58:29;32.00;19.20
10231;DHT22;5159;49.432;8.680;2022-07-03T13:01:28;31.90;18.00
10231;DHT22;5159;49.432;8.680;2022-07-03T13:03:55;32.20;19.50
10231;DHT22;5159;49.432;8.680;2022-07-03T13:06:24;32.30;19.60
10231;DHT22;5159;49.432;8.680;2022-07-03T13:08:53;32.50;18.80
10231;DHT22;5159;49.432;8.680;2022-07-03T13:11:28;32.20;19.00
10231;DHT22;5159;49.432;8.680;2022-07-03T13:14:09;32.40;19.10
10231;DHT22;5159;49.432;8.680;2022-07-03T13:16:41;32.50;18.00
10231;DHT22;5159;49.432;8.680;2022-07-03T13:19:10;32.60;19.10
10231;DHT22;5159;49.432;8.680;2022-07-03T13:21:38;32.50;17.40
10231;DHT22;5159;49.432;8.680;2022-07-03T13:24:05;32.50;17.30
10231;DHT22;5159;49.432;8.680;2022-07-03T13:26:33;32.50;17.40
10231;DHT22;5159;49.432;8.680;2022-07-03T13:29:00;32.20;18.00
10231;DHT22;5159;49.432;8.680;2022-07-03T13:31:29;32.00;18.90
10231;DHT22;5159;49.432;8.680;2022-07-03T13:33:56;31.80;18.70
10231;DHT22;5159;49.432;8.680;2022-07-03T13:36:24;31.90;19.70
10231;DHT22;5159;49.432;8.680;2022-07-03T13:38:51;32.10;18.40
10231;DHT22;5159;49.432;8.680;2022-07-03T13:41:18;32.10;20.10
10231;DHT22;5159;49.432;8.680;2022-07-03T13:43:46;32.20;19.40
10231;DHT22;5159;49.432;8.680;2022-07-03T13:46:14;32.30;19.40
10231;DHT22;5159;49.432;8.680;2022-07-03T13:48:43;32.30;20.60
10231;DHT22;5159;49.432;8.680;2022-07-03T13:51:10;32.40;19.90
10231;DHT22;5159;49.432;8.680;2022-07-03T13:53:37;32.40;19.60
10231;DHT22;5159;49.432;8.680;2022-07-03T13:56:04;32.40;19.50
10231;DHT22;5159;49.432;8.680;2022-07-03T13:58:32;32.40;20.00
10231;DHT22;5159;49.432;8.680;2022-07-03T14:00:59;32.20;20.00
10231;DHT22;5159;49.432;8.680;2022-07-03T14:03:27;31.90;18.40
10231;DHT22;5159;49.432;8.680;2022-07-03T14:05:55;31.50;19.30
10231;DHT22;5159;49.432;8.680;2022-07-03T14:08:22;31.50;20.30
10231;DHT22;5159;49.432;8.680;2022-07-03T14:10:50;31.60;19.90
10231;DHT22;5159;49.432;8.680;2022-07-03T14:13:17;31.80;21.10
10231;DHT22;5159;49.432;8.680;2022-07-03T14:15:44;31.60;18.90
10231;DHT22;5159;49.432;8.680;2022-07-03T14:18:11;31.30;20.30
10231;DHT22;5159;49.432;8.680;2022-07-03T14:20:39;31.10;21.10
10231;DHT22;5159;49.432;8.680;2022-07-03T14:23:07;30.90;19.70
10231;DHT22;5159;49.432;8.680;2022-07-03T14:25:34;30.80;19.80
10231;DHT22;5159;49.432;8.680;2022-07-03T14:28:03;30.80;20.30
10231;DHT22;5159;49.432;8.680;2022-07-03T14:30:48;30.80;19.40
10231;DHT22;5159;49.432;8.680;2022-07-03T14:33:32;31.00;18.70
10231;DHT22;5159;49.432;8.680;2022-07-03T14:35:59;31.20;19.30
10231;DHT22;5159;49.432;8.680;2022-07-03T14:38:27;31.40;21.40
10231;DHT22;5159;49.432;8.680;2022-07-03T14:40:55;31.50;19.90
10231;DHT22;5159;49.432;8.680;2022-07-03T14:43:22;31.50;20.70
10231;DHT22;5159;49.432;8.680;2022-07-03T14:46:00;31.60;20.40
10231;DHT22;5159;49.432;8.680;2022-07-03T14:48:27;31.40;19.50
10231;DHT22;5159;49.432;8.680;2022-07-03T14:50:54;31.50;19.50
10231;DHT22;5159;49.432;8.680;2022-07-03T14:53:24;31.50;20.20
10231;DHT22;5159;49.432;8.680;2022-07-03T14:56:08;31.10;20.80
10231;DHT22;5159;49.432;8.680;2022-07-03T14:58:55;31.20;21.70
10231;DHT22;5159;49.432;8.680;2022-07-03T15:01:28;31.10;18.90
10231;DHT22;5159;49.432;8.680;2022-07-03T15:04:04;31.10;19.00
10231;DHT22;5159;49.432;8.680;2022-07-03T15:06:44;31.30;19.40
10231;DHT22;5159;49.432;8.680;2022-07-03T15:09:17;31.40;18.90
10231;DHT22;5159;49.432;8.680;2022-07-03T15:11:55;31.40;18.80
10231;DHT22;5159;49.432;8.680;2022-07-03T15:14:47;31.40;18.80
10231;DHT22;5159;49.432;8.680;2022-07-03T15:17:17;31.20;18.80
10231;DHT22;5159;49.432;8.680;2022-07-03T15:19:57;30.70;18.80
10231;DHT22;5159;49.432;8.680;2022-07-03T15:22:27;30.80;19.20
10231;DHT22;5159;49.432;8.680;2022-07-03T15:25:06;30.70;19.00
10231;DHT22;5159;49.432;8.680;2022-07-03T15:27:45;30.90;20.80
10231;DHT22;5159;49.432;8.680;2022-07-03T15:30:24;31.00;20.30
10231;DHT22;5159;49.432;8.680;2022-07-03T15:32:57;31.00;19.70
10231;DHT22;5159;49.432;8.680;2022-07-03T15:35:26;30.80;19.50
10231;DHT22;5159;49.432;8.680;2022-07-03T15:38:06;30.80;20.00
10231;DHT22;5159;49.432;8.680;2022-07-03T15:40:44;30.80;20.00
10231;DHT22;5159;49.432;8.680;2022-07-03T15:43:35;30.50;19.50
10231;DHT22;5159;49.432;8.680;2022-07-03T15:46:10;30.20;19.70
10231;DHT22;5159;49.432;8.680;2022-07-03T15:48:49;30.10;19.80
10231;DHT22;5159;49.432;8.680;2022-07-03T15:51:20;30.00;20.10
10231;DHT22;5159;49.432;8.680;2022-07-03T15:53:55;30.10;20.70
10231;DHT22;5159;49.432;8.680;2022-07-03T15:56:25;30.30;21.20
10231;DHT22;5159;49.432;8.680;2022-07-03T15:58:58;30.40;20.70
10231;DHT22;5159;49.432;8.680;2022-07-03T16:01:28;30.50;21.40
10231;DHT22;5159;49.432;8.680;2022-07-03T16:04:18;30.40;19.80
10231;DHT22;5159;49.432;8.680;2022-07-03T16:06:49;30.50;21.50
10231;DHT22;5159;49.432;8.680;2022-07-03T16:09:16;30.40;20.20